Time;durP1;ratioP1;P1;durP2;ratioP2;P2;SDS_P1;SDS_P2;PMS_P1;PMS_P2;Temp;Humidity;BMP_temperature;BMP_pressure;BME280_temperature;BME280_humidity;BME280_pressure;Samples;Min_cycle;Max_cycle;Signal;HPM_P1;HPM_P2
2022/05/28 00:00:17;;;;;;;;;;;;;;;;;;1042836;28;4226;-56
2022/05/28 00:01:05;;;;;;;;;;;;;;;;;;1044403;28;3913;-57
2022/05/28 00:01:35;;;;;;;;;;;;;;;;;;1043780;28;3708;-58
2022/05/28 00:02:05;;;;;;;;;;;;;;;;;;1043707;28;3844;-57
2022/05/28 00:02:36;;;;;;;;;;;;;;;;;;1042928;28;4113;-58
2022/05/28 00:03:06;;;;;;;;;;;;;;;;;;1044777;28;4104;-57
2022/05/28 00:03:36;;;;;;;;;;;;;;;;;;1042908;28;3817;-58
2022/05/28 00:04:08;;;;;;;;;;;;;;;;;;1041775;28;4181;-56
2022/05/28 00:04:38;;;;;;;;;;;;;;;;;;1042145;28;3732;-54
2022/05/28 00:05:08;;;;;;;;;;;;;;;;;;1041581;28;3801;-56
2022/05/28 00:05:40;;;;;;;;;;;;;;;;;;1041713;28;1661;-56
2022/05/28 00:06:11;;;;;;;;;;;;;;;;;;1044372;28;4280;-54
2022/05/28 00:06:42;;;;;;;;;;;;;;;;;;1045341;28;3847;-54
2022/05/28 00:07:12;;;;;;;;;;;;;;;;;;1044471;28;4079;-56
2022/05/28 00:07:42;;;;;;;;;;;;;;;;;;1044581;28;1846;-55
2022/05/28 00:08:12;;;;;;;;;;;;;;;;;;1044340;28;4007;-58
2022/05/28 00:08:43;;;;;;;;;;;;;;;;;;1043869;28;3611;-56
2022/05/28 00:09:13;;;;;;;;;;;;;;;;;;1045509;28;3919;-58
2022/05/28 00:09:44;;;;;;;;;;;;;;;;;;1045891;28;2105;-58
2022/05/28 00:10:15;;;;;;;;;;;;;;;;;;1045050;28;3836;-56
2022/05/28 00:10:46;;;;;;;;;;;;;;;;;;1043100;28;3390;-57
2022/05/28 00:11:21;;;;;;;;;;;;;;;;;;1041933;28;4053;-56
2022/05/28 00:11:51;;;;;;;;;;;;;;;;;;1044124;28;4824;-57
2022/05/28 00:12:22;;;;;;;;;;;;;;;;;;1043460;28;3384;-56
2022/05/28 00:12:54;;;;;;;;;;;;;;;;;;1044100;28;3844;-57
2022/05/28 00:13:24;;;;;;;;;;;;;;;;;;1044040;28;3820;-57
2022/05/28 00:13:55;;;;;;;;;;;;;;;;;;1044052;28;4406;-57
2022/05/28 00:14:25;;;;;;;;;;;;;;;;;;1044885;28;1641;-56
2022/05/28 00:14:56;;;;;;;;;;;;;;;;;;1045782;28;4193;-54
2022/05/28 00:15:27;;;;;;;;;;;;;;;;;;1045459;28;2805;-56
2022/05/28 00:15:57;;;;;;;;;;;;;;;;;;1044908;28;4059;-56
2022/05/28 00:16:28;;;;;;;;;;;;;;;;;;1044203;28;3774;-56
2022/05/28 00:16:58;;;;;;;;;;;;;;;;;;1045167;28;3906;-56
2022/05/28 00:17:28;;;;;;;;;;;;;;;;;;1045780;28;1666;-57
2022/05/28 00:17:59;;;;;;;;;;;;;;;;;;1041706;28;4062;-56
2022/05/28 00:18:31;;;;;;;;;;;;;;;;;;1041296;28;3840;-56
2022/05/28 00:19:02;;;;;;;;;;;;;;;;;;1044506;28;3870;-55
2022/05/28 00:19:32;;;;;;;;;;;;;;;;;;1045065;28;3699;-56
2022/05/28 00:20:03;;;;;;;;;;;;;;;;;;1042412;28;3988;-58
2022/05/28 00:20:34;;;;;;;;;;;;;;;;;;1043984;28;2342;-53
2022/05/28 00:21:04;;;;;;;;;;;;;;;;;;1044284;28;3952;-57
2022/05/28 00:21:35;;;;;;;;;;;;;;;;;;1045697;28;1659;-56
2022/05/28 00:22:05;;;;;;;;;;;;;;;;;;1042525;28;4049;-56
2022/05/28 00:22:37;;;;;;;;;;;;;;;;;;1043914;28;4017;-55
2022/05/28 00:23:07;;;;;;;;;;;;;;;;;;1043764;28;3873;-56
2022/05/28 00:23:38;;;;;;;;;;;;;;;;;;1045046;28;4088;-59
2022/05/28 00:24:08;;;;;;;;;;;;;;;;;;1043406;28;4085;-56
2022/05/28 00:24:38;;;;;;;;;;;;;;;;;;1045258;28;3887;-56
2022/05/28 00:25:10;;;;;;;;;;;;;;;;;;1038239;28;4096;-58
2022/05/28 00:25:41;;;;;;;;;;;;;;;;;;1039186;28;3447;-57
2022/05/28 00:26:12;;;;;;;;;;;;;;;;;;1039683;28;3881;-56
2022/05/28 00:26:43;;;;;;;;;;;;;;;;;;1038571;28;3232;-57
2022/05/28 00:27:13;;;;;;;;;;;;;;;;;;1044005;28;4465;-57
2022/05/28 00:27:44;;;;;;;;;;;;;;;;;;1044166;28;3590;-55
2022/05/28 00:28:14;;;;;;;;;;;;;;;;;;1045187;28;3845;-57
2022/05/28 00:28:45;;;;;;;;;;;;;;;;;;1042436;28;3887;-56
2022/05/28 00:29:15;;;;;;;;;;;;;;;;;;1044143;28;4891;-57
2022/05/28 00:29:45;;;;;;;;;;;;;;;;;;1041531;28;4484;-57
2022/05/28 00:30:16;;;;;;;;;;;;;;;;;;1041406;28;4209;-57
2022/05/28 00:30:47;;;;;;;;;;;;;;;;;;1042594;28;5158;-57
2022/05/28 00:31:18;;;;;;;;;;;;;;;;;;1041326;28;3731;-58
2022/05/28 00:31:48;;;;;;;;;;;;;;;;;;1037238;28;4033;-58
2022/05/28 00:32:18;;;;;;;;;;;;;;;;;;1036622;28;4074;-57
2022/05/28 00:32:49;;;;;;;;;;;;;;;;;;1037522;28;3852;-58
2022/05/28 00:33:19;;;;;;;;;;;;;;;;;;1041402;28;2069;-57
2022/05/28 00:33:49;;;;;;;;;;;;;;;;;;1041737;28;4853;-55
2022/05/28 00:34:19;;;;;;;;;;;;;;;;;;1044194;28;2091;-57
2022/05/28 00:34:50;;;;;;;;;;;;;;;;;;1043137;28;4084;-56
2022/05/28 00:35:20;;;;;;;;;;;;;;;;;;1043923;28;3073;-57
2022/05/28 00:35:50;;;;;;;;;;;;;;;;;;1037937;28;4145;-55
2022/05/28 00:36:20;;;;;;;;;;;;;;;;;;1040181;28;3028;-58
2022/05/28 00:36:51;;;;;;;;;;;;;;;;;;1037909;28;4072;-57
2022/05/28 00:37:21;;;;;;;;;;;;;;;;;;1040998;28;3766;-57
2022/05/28 00:37:52;;;;;;;;;;;;;;;;;;1042393;28;4052;-56
2022/05/28 00:38:24;;;;;;;;;;;;;;;;;;1044672;28;4435;-57
2022/05/28 00:38:54;;;;;;;;;;;;;;;;;;1041474;28;4249;-57
2022/05/28 00:39:24;;;;;;;;;;;;;;;;;;1044988;28;1697;-58
2022/05/28 00:39:55;;;;;;;;;;;;;;;;;;1035591;28;4131;-57
2022/05/28 00:40:26;;;;;;;;;;;;;;;;;;1036781;28;2422;-57
2022/05/28 00:40:57;;;;;;;;;;;;;;;;;;1035615;28;3926;-56
2022/05/28 00:41:28;;;;;;;;;;;;;;;;;;1036182;28;3747;-57
2022/05/28 00:41:59;;;;;;;;;;;;;;;;;;1041647;28;4197;-57
2022/05/28 00:42:29;;;;;;;;;;;;;;;;;;1041508;28;3040;-58
2022/05/28 00:43:01;;;;;;;;;;;;;;;;;;1038393;28;4152;-56
2022/05/28 00:43:31;;;;;;;;;;;;;;;;;;1040664;28;3400;-58
2022/05/28 00:44:03;;;;;;;;;;;;;;;;;;1040485;28;3922;-58
2022/05/28 00:44:34;;;;;;;;;;;;;;;;;;1041585;28;3602;-54
2022/05/28 00:45:04;;;;;;;;;;;;;;;;;;1041805;28;5184;-57
2022/05/28 00:45:34;;;;;;;;;;;;;;;;;;1043543;28;3782;-57
2022/05/28 00:46:17;;;;;;;;;;;;;;;;;;1043646;28;3868;-55
2022/05/28 00:46:48;;;;;;;;;;;;;;;;;;1043791;28;3921;-57
2022/05/28 00:47:19;;;;;;;;;;;;;;;;;;1044650;28;3282;-57
2022/05/28 00:47:51;;;;;;;;;;;;;;;;;;1043793;28;4213;-58
2022/05/28 00:48:24;;;;;;;;;;;;;;;;;;1045095;28;2044;-57
2022/05/28 00:49:00;;;;;;;;;;;;;;;;;;1042949;28;3911;-56
2022/05/28 00:49:32;;;;;;;;;;;;;;;;;;1045202;28;1727;-58
2022/05/28 00:50:03;;;;;;;;;;;;;;;;;;1044491;28;4048;-56
2022/05/28 00:50:34;;;;;;;;;;;;;;;;;;1043280;28;3810;-57
2022/05/28 00:51:06;;;;;;;;;;;;;;;;;;1043245;28;4078;-58
2022/05/28 00:51:41;;;;;;;;;;;;;;;;;;1044958;28;1659;-58
2022/05/28 00:52:13;;;;;;;;;;;;;;;;;;1043987;28;4240;-55
2022/05/28 00:52:44;;;;;;;;;;;;;;;;;;1043049;28;3783;-56
2022/05/28 00:53:15;;;;;;;;;;;;;;;;;;1043992;28;4016;-56
2022/05/28 00:53:45;;;;;;;;;;;;;;;;;;1040962;28;2046;-55
2022/05/28 00:54:16;;;;;;;;;;;;;;;;;;1039708;28;3888;-56
2022/05/28 00:54:47;;;;;;;;;;;;;;;;;;1040440;28;3843;-56
2022/05/28 00:55:19;;;;;;;;;;;;;;;;;;1038456;28;3615;-57
2022/05/28 00:55:50;;;;;;;;;;;;;;;;;;1043280;28;4059;-57
2022/05/28 00:56:22;;;;;;;;;;;;;;;;;;1044239;28;3915;-58
2022/05/28 00:56:53;;;;;;;;;;;;;;;;;;1044756;28;3914;-55
2022/05/28 00:57:23;;;;;;;;;;;;;;;;;;1044709;28;1772;-58
2022/05/28 00:57:53;;;;;;;;;;;;;;;;;;1044396;28;4197;-56
2022/05/28 00:58:24;;;;;;;;;;;;;;;;;;1040856;28;1870;-59
2022/05/28 00:59:08;;;;;;;;;;;;;;;;;;1039802;28;4981;-54
2022/05/28 00:59:45;;;;;;;;;;;;;;;;;;1034383;28;3699;-58
2022/05/28 01:00:17;;;;;;;;;;;;;;;;;;1035246;28;4036;-54
2022/05/28 01:00:48;;;;;;;;;;;;;;;;;;1034423;28;4561;-54
2022/05/28 01:01:22;;;;;;;;;;;;;;;;;;1040445;28;3801;-55
2022/05/28 01:01:56;;;;;;;;;;;;;;;;;;1039597;28;7456;-55
2022/05/28 01:02:49;;;;;;;;;;;;;;;;;;1040139;28;1606;-56
2022/05/28 01:03:29;;;;;;;;;;;;;;;;;;1022756;28;5685;-57
2022/05/28 01:04:03;;;;;;;;;;;;;;;;;;1024869;28;4033;-54
2022/05/28 01:04:50;;;;;;;;;;;;;;;;;;1036824;28;2673;-57
2022/05/28 01:05:40;;;;;;;;;;;;;;;;;;1036218;28;4004;-57
2022/05/28 01:06:17;;;;;;;;;;;;;;;;;;1027119;28;3875;-55
2022/05/28 01:06:51;;;;;;;;;;;;;;;;;;1036021;28;3981;-58
2022/05/28 01:07:40;;;;;;;;;;;;;;;;;;1035902;28;3552;-57
2022/05/28 01:08:17;;;;;;;;;;;;;;;;;;1036163;28;4045;-56
2022/05/28 01:08:50;;;;;;;;;;;;;;;;;;1036124;28;3898;-56
2022/05/28 01:09:41;;;;;;;;;;;;;;;;;;1035744;28;3484;-57
2022/05/28 01:10:26;;;;;;;;;;;;;;;;;;1037549;28;3960;-57
2022/05/28 01:10:59;;;;;;;;;;;;;;;;;;1039426;28;5276;-57
2022/05/28 01:11:41;;;;;;;;;;;;;;;;;;1040363;28;2213;-57
2022/05/28 01:12:21;;;;;;;;;;;;;;;;;;1040438;28;3939;-55
2022/05/28 01:13:03;;;;;;;;;;;;;;;;;;1039522;28;4249;-59
2022/05/28 01:13:42;;;;;;;;;;;;;;;;;;1038904;28;3991;-57
2022/05/28 01:14:21;;;;;;;;;;;;;;;;;;1035423;28;4394;-55
2022/05/28 01:15:07;;;;;;;;;;;;;;;;;;1035758;28;4054;-56
2022/05/28 01:15:45;;;;;;;;;;;;;;;;;;1036326;28;3243;-55
2022/05/28 01:16:24;;;;;;;;;;;;;;;;;;1036333;28;4031;-54
2022/05/28 01:16:58;;;;;;;;;;;;;;;;;;1035946;28;3909;-58
2022/05/28 01:17:35;;;;;;;;;;;;;;;;;;1036457;28;3636;-56
2022/05/28 01:18:17;;;;;;;;;;;;;;;;;;1036786;28;3867;-56
2022/05/28 01:18:59;;;;;;;;;;;;;;;;;;1037034;28;4087;-55
2022/05/28 01:19:32;;;;;;;;;;;;;;;;;;1036379;28;3368;-56
2022/05/28 01:20:12;;;;;;;;;;;;;;;;;;1033643;28;4406;-54
2022/05/28 01:20:50;;;;;;;;;;;;;;;;;;1035579;28;4129;-57
2022/05/28 01:21:39;;;;;;;;;;;;;;;;;;1036521;28;3969;-54
2022/05/28 01:22:12;;;;;;;;;;;;;;;;;;1037148;28;3989;-58
2022/05/28 01:22:53;;;;;;;;;;;;;;;;;;1037755;28;1914;-56
2022/05/28 01:23:28;;;;;;;;;;;;;;;;;;1036566;28;3737;-55
2022/05/28 01:24:10;;;;;;;;;;;;;;;;;;1037117;28;3896;-56
2022/05/28 01:24:41;;;;;;;;;;;;;;;;;;1035382;28;3841;-55
2022/05/28 01:25:11;;;;;;;;;;;;;;;;;;1035212;28;4129;-57
2022/05/28 01:25:52;;;;;;;;;;;;;;;;;;1036269;28;3864;-56
2022/05/28 01:26:32;;;;;;;;;;;;;;;;;;1035072;28;7205;-57
2022/05/28 01:27:28;;;;;;;;;;;;;;;;;;1037040;28;4489;-57
2022/05/28 01:28:02;;;;;;;;;;;;;;;;;;1036432;28;3906;-57
2022/05/28 01:28:35;;;;;;;;;;;;;;;;;;1040915;28;1689;-57
2022/05/28 01:29:15;;;;;;;;;;;;;;;;;;1040237;28;3758;-55
2022/05/28 01:29:50;;;;;;;;;;;;;;;;;;1037478;28;2642;-55
2022/05/28 01:30:20;;;;;;;;;;;;;;;;;;1035573;28;3987;-57
2022/05/28 01:30:52;;;;;;;;;;;;;;;;;;1033127;28;4018;-57
2022/05/28 01:31:22;;;;;;;;;;;;;;;;;;1037550;28;3446;-58
2022/05/28 01:31:54;;;;;;;;;;;;;;;;;;1035479;28;5081;-57
2022/05/28 01:32:25;;;;;;;;;;;;;;;;;;1028614;28;3415;-56
2022/05/28 01:32:57;;;;;;;;;;;;;;;;;;1022670;28;4076;-58
2022/05/28 01:33:28;;;;;;;;;;;;;;;;;;1028352;28;3911;-56
2022/05/28 01:33:59;;;;;;;;;;;;;;;;;;1027667;28;4078;-56
2022/05/28 01:34:31;;;;;;;;;;;;;;;;;;1038521;28;1782;-54
2022/05/28 01:35:04;;;;;;;;;;;;;;;;;;1034441;28;3909;-56
2022/05/28 01:35:35;;;;;;;;;;;;;;;;;;1034702;28;3649;-58
2022/05/28 01:36:06;;;;;;;;;;;;;;;;;;1034698;28;4406;-58
2022/05/28 01:36:37;;;;;;;;;;;;;;;;;;1036539;28;2064;-55
2022/05/28 01:37:07;;;;;;;;;;;;;;;;;;1036344;28;3865;-57
2022/05/28 01:37:38;;;;;;;;;;;;;;;;;;1037445;28;1998;-57
2022/05/28 01:38:09;;;;;;;;;;;;;;;;;;1034938;28;3881;-55
2022/05/28 01:38:41;;;;;;;;;;;;;;;;;;1036258;28;3416;-57
2022/05/28 01:39:13;;;;;;;;;;;;;;;;;;1036008;28;3795;-57
2022/05/28 01:39:46;;;;;;;;;;;;;;;;;;1036904;28;3902;-56
2022/05/28 01:40:18;;;;;;;;;;;;;;;;;;1035986;28;3949;-57
2022/05/28 01:40:48;;;;;;;;;;;;;;;;;;1034465;28;6261;-59
2022/05/28 01:41:19;;;;;;;;;;;;;;;;;;1034728;28;3834;-57
2022/05/28 01:41:50;;;;;;;;;;;;;;;;;;1036532;28;3988;-57
2022/05/28 01:42:20;;;;;;;;;;;;;;;;;;1037453;28;3495;-56
2022/05/28 01:42:52;;;;;;;;;;;;;;;;;;1035521;28;4076;-57
2022/05/28 01:43:23;;;;;;;;;;;;;;;;;;1036526;28;3516;-55
2022/05/28 01:43:53;;;;;;;;;;;;;;;;;;1035685;28;4282;-57
2022/05/28 01:44:24;;;;;;;;;;;;;;;;;;1034560;28;3902;-58
2022/05/28 01:44:54;;;;;;;;;;;;;;;;;;1035827;28;4174;-57
2022/05/28 01:45:27;;;;;;;;;;;;;;;;;;1033651;28;4718;-53
2022/05/28 01:45:57;;;;;;;;;;;;;;;;;;1035544;28;4091;-56
2022/05/28 01:46:28;;;;;;;;;;;;;;;;;;1037043;28;3295;-55
2022/05/28 01:46:59;;;;;;;;;;;;;;;;;;1037065;28;3837;-54
2022/05/28 01:47:29;;;;;;;;;;;;;;;;;;1037112;28;3807;-54
2022/05/28 01:48:02;;;;;;;;;;;;;;;;;;1034837;28;4285;-57
2022/05/28 01:48:32;;;;;;;;;;;;;;;;;;1036919;28;4228;-57
2022/05/28 01:49:03;;;;;;;;;;;;;;;;;;1037588;28;3920;-56
2022/05/28 01:49:34;;;;;;;;;;;;;;;;;;1037066;28;3905;-53
2022/05/28 01:50:05;;;;;;;;;;;;;;;;;;1036818;28;3802;-55
2022/05/28 01:50:42;;;;;;;;;;;;;;;;;;1037838;28;1945;-53
2022/05/28 01:51:13;;;;;;;;;;;;;;;;;;1036131;28;4014;-58
2022/05/28 01:51:47;;;;;;;;;;;;;;;;;;1037643;28;1652;-57
2022/05/28 01:52:19;;;;;;;;;;;;;;;;;;1038164;28;3670;-57
2022/05/28 01:52:50;;;;;;;;;;;;;;;;;;1035368;28;3908;-56
2022/05/28 01:54:14;;;;;;;;;;;;;;;;;;1036495;28;4140;-54
2022/05/28 01:54:45;;;;;;;;;;;;;;;;;;1037999;28;2048;-57
2022/05/28 01:55:17;;;;;;;;;;;;;;;;;;1037336;28;3997;-58
2022/05/28 01:55:48;;;;;;;;;;;;;;;;;;1035477;28;3841;-58
2022/05/28 01:56:18;;;;;;;;;;;;;;;;;;1036222;28;4475;-57
2022/05/28 01:56:50;;;;;;;;;;;;;;;;;;1036686;28;3913;-57
2022/05/28 01:57:20;;;;;;;;;;;;;;;;;;1036544;28;3166;-54
2022/05/28 01:57:51;;;;;;;;;;;;;;;;;;1036094;28;3885;-56
2022/05/28 01:58:21;;;;;;;;;;;;;;;;;;1037238;28;3658;-56
2022/05/28 01:58:51;;;;;;;;;;;;;;;;;;1035641;28;4050;-57
2022/05/28 01:59:37;;;;;;;;;;;;;;;;;;1041163;28;3578;-55
2022/05/28 02:00:14;;;;;;;;;;;;;;;;;;1039575;28;4946;-54
2022/05/28 02:00:51;;;;;;;;;;;;;;;;;;1040382;28;3899;-55
2022/05/28 02:01:21;;;;;;;;;;;;;;;;;;1040616;28;3724;-56
2022/05/28 02:01:52;;;;;;;;;;;;;;;;;;1041452;28;4088;-57
2022/05/28 02:02:22;;;;;;;;;;;;;;;;;;1038908;28;7617;-56
2022/05/28 02:02:55;;;;;;;;;;;;;;;;;;1041791;28;3890;-57
2022/05/28 02:03:26;;;;;;;;;;;;;;;;;;1040094;28;4440;-57
2022/05/28 02:03:58;;;;;;;;;;;;;;;;;;1040255;28;3818;-56
2022/05/28 02:04:29;;;;;;;;;;;;;;;;;;1041569;28;2912;-56
2022/05/28 02:04:59;;;;;;;;;;;;;;;;;;1041235;28;3933;-54
2022/05/28 02:05:30;;;;;;;;;;;;;;;;;;1041566;28;3653;-53
2022/05/28 02:06:01;;;;;;;;;;;;;;;;;;1041144;28;4022;-53
2022/05/28 02:06:32;;;;;;;;;;;;;;;;;;1041980;28;1596;-57
2022/05/28 02:07:02;;;;;;;;;;;;;;;;;;1041768;28;4009;-56
2022/05/28 02:07:33;;;;;;;;;;;;;;;;;;1041616;28;1675;-56
2022/05/28 02:08:05;;;;;;;;;;;;;;;;;;1041618;28;4060;-57
2022/05/28 02:08:37;;;;;;;;;;;;;;;;;;1040302;28;3071;-54
2022/05/28 02:09:12;;;;;;;;;;;;;;;;;;1041839;28;3895;-57
2022/05/28 02:09:44;;;;;;;;;;;;;;;;;;1039802;28;1755;-57
2022/05/28 02:10:16;;;;;;;;;;;;;;;;;;1039123;28;3932;-57
2022/05/28 02:10:52;;;;;;;;;;;;;;;;;;1040150;28;3883;-58
2022/05/28 02:11:27;;;;;;;;;;;;;;;;;;1036716;28;3777;-56
2022/05/28 02:12:00;;;;;;;;;;;;;;;;;;1041064;28;4333;-57
2022/05/28 02:12:32;;;;;;;;;;;;;;;;;;1041130;28;3965;-58
2022/05/28 02:13:08;;;;;;;;;;;;;;;;;;1042268;28;3940;-54
2022/05/28 02:13:47;;;;;;;;;;;;;;;;;;1043789;28;4119;-55
2022/05/28 02:14:22;;;;;;;;;;;;;;;;;;1044154;28;4122;-56
2022/05/28 02:14:52;;;;;;;;;;;;;;;;;;1040166;28;3892;-58
2022/05/28 02:15:29;;;;;;;;;;;;;;;;;;1041410;28;2979;-57
2022/05/28 02:16:05;;;;;;;;;;;;;;;;;;1040993;28;4073;-58
2022/05/28 02:16:40;;;;;;;;;;;;;;;;;;1041023;28;3910;-57
2022/05/28 02:17:19;;;;;;;;;;;;;;;;;;1040691;28;4155;-57
2022/05/28 02:17:59;;;;;;;;;;;;;;;;;;1040490;28;3970;-59
2022/05/28 02:18:45;;;;;;;;;;;;;;;;;;1039984;28;2963;-55
2022/05/28 02:19:29;;;;;;;;;;;;;;;;;;1041312;28;3965;-55
2022/05/28 02:20:20;;;;;;;;;;;;;;;;;;1040540;28;4051;-58
2022/05/28 02:20:50;;;;;;;;;;;;;;;;;;1032126;28;4284;-58
2022/05/28 02:21:26;;;;;;;;;;;;;;;;;;1040837;28;3023;-58
2022/05/28 02:22:01;;;;;;;;;;;;;;;;;;1040549;28;4614;-58
2022/05/28 02:22:31;;;;;;;;;;;;;;;;;;1039769;28;3886;-57
2022/05/28 02:23:06;;;;;;;;;;;;;;;;;;1041663;28;4027;-56
2022/05/28 02:23:42;;;;;;;;;;;;;;;;;;1040416;28;4208;-56
2022/05/28 02:24:17;;;;;;;;;;;;;;;;;;1036446;28;4125;-57
2022/05/28 02:24:50;;;;;;;;;;;;;;;;;;1036685;28;4570;-55
2022/05/28 02:25:27;;;;;;;;;;;;;;;;;;1038375;28;4008;-57
2022/05/28 02:26:00;;;;;;;;;;;;;;;;;;1041305;28;3894;-58
2022/05/28 02:26:43;;;;;;;;;;;;;;;;;;1042155;28;1683;-58
2022/05/28 02:27:15;;;;;;;;;;;;;;;;;;1038321;28;4825;-56
2022/05/28 02:27:47;;;;;;;;;;;;;;;;;;1041633;28;4045;-54
2022/05/28 02:28:18;;;;;;;;;;;;;;;;;;1044327;28;3731;-56
2022/05/28 02:28:48;;;;;;;;;;;;;;;;;;1042997;28;4510;-59
2022/05/28 02:29:18;;;;;;;;;;;;;;;;;;1045922;28;2832;-57
2022/05/28 02:29:49;;;;;;;;;;;;;;;;;;1043672;28;3825;-57
2022/05/28 02:30:19;;;;;;;;;;;;;;;;;;1039343;28;3716;-56
2022/05/28 02:30:56;;;;;;;;;;;;;;;;;;1040478;28;3901;-54
2022/05/28 02:31:28;;;;;;;;;;;;;;;;;;1041465;28;1690;-57
2022/05/28 02:31:58;;;;;;;;;;;;;;;;;;1037480;28;7836;-58
2022/05/28 02:32:28;;;;;;;;;;;;;;;;;;1041240;28;3704;-56
2022/05/28 02:33:00;;;;;;;;;;;;;;;;;;1041870;28;4225;-54
2022/05/28 02:33:31;;;;;;;;;;;;;;;;;;1040996;28;3344;-54
2022/05/28 02:34:02;;;;;;;;;;;;;;;;;;1039956;28;4068;-56
2022/05/28 02:34:32;;;;;;;;;;;;;;;;;;1042070;28;1800;-55
2022/05/28 02:35:02;;;;;;;;;;;;;;;;;;1039407;28;4046;-56
2022/05/28 02:35:33;;;;;;;;;;;;;;;;;;1039651;28;2902;-55
2022/05/28 02:36:03;;;;;;;;;;;;;;;;;;1039234;28;4031;-55
2022/05/28 02:36:33;;;;;;;;;;;;;;;;;;1041380;28;1653;-55
2022/05/28 02:37:04;;;;;;;;;;;;;;;;;;1038219;28;4097;-57
2022/05/28 02:37:34;;;;;;;;;;;;;;;;;;1041116;28;4059;-56
2022/05/28 02:38:04;;;;;;;;;;;;;;;;;;1039500;28;4018;-55
2022/05/28 02:38:35;;;;;;;;;;;;;;;;;;1041744;28;4048;-56
2022/05/28 02:39:05;;;;;;;;;;;;;;;;;;1037981;28;4573;-58
2022/05/28 02:39:35;;;;;;;;;;;;;;;;;;1041768;28;3638;-58
2022/05/28 02:40:06;;;;;;;;;;;;;;;;;;1039951;28;4038;-55
2022/05/28 02:40:36;;;;;;;;;;;;;;;;;;1042016;28;1309;-56
2022/05/28 02:41:06;;;;;;;;;;;;;;;;;;1042565;28;3949;-57
2022/05/28 02:41:38;;;;;;;;;;;;;;;;;;1045315;28;1883;-55
2022/05/28 02:42:08;;;;;;;;;;;;;;;;;;1042678;28;4113;-56
2022/05/28 02:42:38;;;;;;;;;;;;;;;;;;1045339;28;3360;-58
2022/05/28 02:43:08;;;;;;;;;;;;;;;;;;1039433;28;3897;-55
2022/05/28 02:43:39;;;;;;;;;;;;;;;;;;1042361;28;3962;-55
2022/05/28 02:44:09;;;;;;;;;;;;;;;;;;1039115;28;4083;-56
2022/05/28 02:44:40;;;;;;;;;;;;;;;;;;1041201;28;3073;-53
2022/05/28 02:45:10;;;;;;;;;;;;;;;;;;1038810;28;4091;-59
2022/05/28 02:45:40;;;;;;;;;;;;;;;;;;1040303;28;3785;-55
2022/05/28 02:46:11;;;;;;;;;;;;;;;;;;1040479;28;3874;-58
2022/05/28 02:46:41;;;;;;;;;;;;;;;;;;1042158;28;3455;-57
2022/05/28 02:47:11;;;;;;;;;;;;;;;;;;1039398;28;4132;-55
2022/05/28 02:47:42;;;;;;;;;;;;;;;;;;1041574;28;3554;-57
2022/05/28 02:48:12;;;;;;;;;;;;;;;;;;1040892;28;4022;-58
2022/05/28 02:48:43;;;;;;;;;;;;;;;;;;1041561;28;3749;-56
2022/05/28 02:49:13;;;;;;;;;;;;;;;;;;1044026;28;4060;-57
2022/05/28 02:49:43;;;;;;;;;;;;;;;;;;1044853;28;3810;-56
2022/05/28 02:50:14;;;;;;;;;;;;;;;;;;1045025;28;4012;-53
2022/05/28 02:50:44;;;;;;;;;;;;;;;;;;1042050;28;1369;-57
2022/05/28 02:51:16;;;;;;;;;;;;;;;;;;1039748;28;4115;-57
2022/05/28 02:51:46;;;;;;;;;;;;;;;;;;1041690;28;3361;-57
2022/05/28 02:52:16;;;;;;;;;;;;;;;;;;1040389;28;3786;-56
2022/05/28 02:52:46;;;;;;;;;;;;;;;;;;1041076;28;3904;-55
2022/05/28 02:53:17;;;;;;;;;;;;;;;;;;1037601;28;3464;-57
2022/05/28 02:53:48;;;;;;;;;;;;;;;;;;1036666;28;4049;-56
2022/05/28 02:54:19;;;;;;;;;;;;;;;;;;1040131;28;3005;-57
2022/05/28 02:54:50;;;;;;;;;;;;;;;;;;1040283;28;4072;-56
2022/05/28 02:55:20;;;;;;;;;;;;;;;;;;1040315;28;4037;-56
2022/05/28 02:55:50;;;;;;;;;;;;;;;;;;1038426;28;3903;-57
2022/05/28 02:56:21;;;;;;;;;;;;;;;;;;1040151;28;3772;-58
2022/05/28 02:56:51;;;;;;;;;;;;;;;;;;1040370;28;3996;-58
2022/05/28 02:57:22;;;;;;;;;;;;;;;;;;1042955;28;3803;-57
2022/05/28 02:57:52;;;;;;;;;;;;;;;;;;1045239;28;3820;-57
2022/05/28 02:58:22;;;;;;;;;;;;;;;;;;1041480;28;3699;-56
2022/05/28 02:58:52;;;;;;;;;;;;;;;;;;1039444;28;3876;-58
2022/05/28 02:59:37;;;;;;;;;;;;;;;;;;1040502;28;3775;-57
2022/05/28 03:00:21;;;;;;;;;;;;;;;;;;1037792;28;4016;-57
2022/05/28 03:00:52;;;;;;;;;;;;;;;;;;1039980;28;4083;-56
2022/05/28 03:01:26;;;;;;;;;;;;;;;;;;1040530;28;3605;-56
2022/05/28 03:01:57;;;;;;;;;;;;;;;;;;1039827;28;4120;-55
2022/05/28 03:02:27;;;;;;;;;;;;;;;;;;1041684;28;3364;-57
2022/05/28 03:02:58;;;;;;;;;;;;;;;;;;1039394;28;4560;-55
2022/05/28 03:03:28;;;;;;;;;;;;;;;;;;1038689;28;4155;-56
2022/05/28 03:04:06;;;;;;;;;;;;;;;;;;1039735;28;4058;-57
2022/05/28 03:04:36;;;;;;;;;;;;;;;;;;1041201;28;2049;-56
2022/05/28 03:05:06;;;;;;;;;;;;;;;;;;1040071;28;4247;-58
2022/05/28 03:05:37;;;;;;;;;;;;;;;;;;1041219;28;2192;-58
2022/05/28 03:06:07;;;;;;;;;;;;;;;;;;1039362;28;3879;-56
2022/05/28 03:06:37;;;;;;;;;;;;;;;;;;1041010;28;1611;-58
2022/05/28 03:07:08;;;;;;;;;;;;;;;;;;1038558;28;4068;-56
2022/05/28 03:07:38;;;;;;;;;;;;;;;;;;1035667;28;4209;-58
2022/05/28 03:08:08;;;;;;;;;;;;;;;;;;1040836;28;4094;-54
2022/05/28 03:08:38;;;;;;;;;;;;;;;;;;1039038;28;3766;-57
2022/05/28 03:09:09;;;;;;;;;;;;;;;;;;1041026;28;4199;-56
2022/05/28 03:09:39;;;;;;;;;;;;;;;;;;1040389;28;3190;-57
2022/05/28 03:10:11;;;;;;;;;;;;;;;;;;1039819;28;4138;-58
2022/05/28 03:10:48;;;;;;;;;;;;;;;;;;1038892;28;4399;-56
2022/05/28 03:11:18;;;;;;;;;;;;;;;;;;1040890;28;4054;-57
2022/05/28 03:11:49;;;;;;;;;;;;;;;;;;1040325;28;3952;-57
2022/05/28 03:12:19;;;;;;;;;;;;;;;;;;1043236;28;3889;-58
2022/05/28 03:12:49;;;;;;;;;;;;;;;;;;1044021;28;3819;-57
2022/05/28 03:13:20;;;;;;;;;;;;;;;;;;1039413;28;3837;-57
2022/05/28 03:13:50;;;;;;;;;;;;;;;;;;1043732;28;4088;-53
2022/05/28 03:14:21;;;;;;;;;;;;;;;;;;1040760;28;1682;-53
2022/05/28 03:14:51;;;;;;;;;;;;;;;;;;1040082;28;3871;-56
2022/05/28 03:15:21;;;;;;;;;;;;;;;;;;1040982;28;3138;-57
2022/05/28 03:15:51;;;;;;;;;;;;;;;;;;1040937;28;4087;-57
2022/05/28 03:16:22;;;;;;;;;;;;;;;;;;1041722;28;1799;-55
2022/05/28 03:16:52;;;;;;;;;;;;;;;;;;1040028;28;4108;-57
2022/05/28 03:17:22;;;;;;;;;;;;;;;;;;1040566;28;3605;-56
2022/05/28 03:17:53;;;;;;;;;;;;;;;;;;1041419;28;4055;-58
2022/05/28 03:18:23;;;;;;;;;;;;;;;;;;1040140;28;3776;-58
2022/05/28 03:18:53;;;;;;;;;;;;;;;;;;1040146;28;3939;-57
2022/05/28 03:19:23;;;;;;;;;;;;;;;;;;1039878;28;4403;-57
2022/05/28 03:19:54;;;;;;;;;;;;;;;;;;1043794;28;4239;-57
2022/05/28 03:20:24;;;;;;;;;;;;;;;;;;1044694;28;4142;-56
2022/05/28 03:20:54;;;;;;;;;;;;;;;;;;1044073;28;3908;-56
2022/05/28 03:21:25;;;;;;;;;;;;;;;;;;1044570;28;3704;-56
2022/05/28 03:21:55;;;;;;;;;;;;;;;;;;1039233;28;3903;-56
2022/05/28 03:22:25;;;;;;;;;;;;;;;;;;1040889;28;2997;-56
2022/05/28 03:22:56;;;;;;;;;;;;;;;;;;1041437;28;4277;-57
2022/05/28 03:23:26;;;;;;;;;;;;;;;;;;1041071;28;3767;-57
2022/05/28 03:23:57;;;;;;;;;;;;;;;;;;1041891;28;4144;-56
2022/05/28 03:24:27;;;;;;;;;;;;;;;;;;1041557;28;1742;-52
2022/05/28 03:24:58;;;;;;;;;;;;;;;;;;1041099;28;3880;-56
2022/05/28 03:25:28;;;;;;;;;;;;;;;;;;1041445;28;1684;-56
2022/05/28 03:26:09;;;;;;;;;;;;;;;;;;1039471;28;4116;-56
2022/05/28 03:26:40;;;;;;;;;;;;;;;;;;1041677;28;1656;-55
2022/05/28 03:27:10;;;;;;;;;;;;;;;;;;1041261;28;3839;-55
2022/05/28 03:27:40;;;;;;;;;;;;;;;;;;1042146;28;1661;-57
2022/05/28 03:28:10;;;;;;;;;;;;;;;;;;1044454;28;4062;-58
2022/05/28 03:28:41;;;;;;;;;;;;;;;;;;1043147;28;3601;-57
2022/05/28 03:29:11;;;;;;;;;;;;;;;;;;1040613;28;3875;-56
2022/05/28 03:29:41;;;;;;;;;;;;;;;;;;1040844;28;1919;-56
2022/05/28 03:30:11;;;;;;;;;;;;;;;;;;1039091;28;4032;-57
2022/05/28 03:30:42;;;;;;;;;;;;;;;;;;1040915;28;3710;-56
2022/05/28 03:31:12;;;;;;;;;;;;;;;;;;1040304;28;3890;-56
2022/05/28 03:31:43;;;;;;;;;;;;;;;;;;1039005;28;3713;-58
2022/05/28 03:32:13;;;;;;;;;;;;;;;;;;1041512;28;4123;-57
2022/05/28 03:32:43;;;;;;;;;;;;;;;;;;1041503;28;1673;-57
2022/05/28 03:33:13;;;;;;;;;;;;;;;;;;1039916;28;3947;-57
2022/05/28 03:33:44;;;;;;;;;;;;;;;;;;1039888;28;3708;-58
2022/05/28 03:34:14;;;;;;;;;;;;;;;;;;1039735;28;4531;-58
2022/05/28 03:34:44;;;;;;;;;;;;;;;;;;1040053;28;4511;-56
2022/05/28 03:35:15;;;;;;;;;;;;;;;;;;1040124;28;3890;-56
2022/05/28 03:35:45;;;;;;;;;;;;;;;;;;1041139;28;1963;-56
2022/05/28 03:36:16;;;;;;;;;;;;;;;;;;1039664;28;3850;-58
2022/05/28 03:36:46;;;;;;;;;;;;;;;;;;1040218;28;3996;-58
2022/05/28 03:37:16;;;;;;;;;;;;;;;;;;1041377;28;3670;-57
2022/05/28 03:37:46;;;;;;;;;;;;;;;;;;1039442;28;3897;-55
2022/05/28 03:38:17;;;;;;;;;;;;;;;;;;1041067;28;3838;-54
2022/05/28 03:38:47;;;;;;;;;;;;;;;;;;1040879;28;3956;-58
2022/05/28 03:39:18;;;;;;;;;;;;;;;;;;1041693;28;1759;-58
2022/05/28 03:39:48;;;;;;;;;;;;;;;;;;1036725;28;4122;-58
2022/05/28 03:40:18;;;;;;;;;;;;;;;;;;1038456;28;4779;-58
2022/05/28 03:40:48;;;;;;;;;;;;;;;;;;1038586;28;4492;-56
2022/05/28 03:41:19;;;;;;;;;;;;;;;;;;1039491;28;3901;-57
2022/05/28 03:41:49;;;;;;;;;;;;;;;;;;1038441;28;4083;-58
2022/05/28 03:42:20;;;;;;;;;;;;;;;;;;1039226;28;3048;-55
2022/05/28 03:42:51;;;;;;;;;;;;;;;;;;1040323;28;4110;-56
2022/05/28 03:43:21;;;;;;;;;;;;;;;;;;1040813;28;2922;-55
2022/05/28 03:43:51;;;;;;;;;;;;;;;;;;1040667;28;4095;-55
2022/05/28 03:44:21;;;;;;;;;;;;;;;;;;1041570;28;3049;-56
2022/05/28 03:44:52;;;;;;;;;;;;;;;;;;1040847;28;4066;-57
2022/05/28 03:45:24;;;;;;;;;;;;;;;;;;1040190;28;3859;-56
2022/05/28 03:45:54;;;;;;;;;;;;;;;;;;1039199;28;3902;-57